AAL848 KORD-OMAA
Flight info
| Callsign | AAL848 |
|---|---|
| Flight time | N/A |
| Altitude | 29000 |
| Route | EBAKE DCT WISMO DCT POSTS DCT PADDE DCT SVM DCT DKK DCT KB87C/N0485F310 DCT TOPPS N435B ELSIR/M084F330 DCT 50N050W 52N040W 54N030W 55N020W DCT RESNO DCT NETKI/N0480F350 DCT CON DCT MORAG DCT NUCHU DCT BOGNA UL612 XAMAB DCT VEULE DCT INPAX DCT RESMI DCT ODEBU DCT OGULO DCT OKASI DCT OKEKO DCT MOU DCT MADIV DCT MOKIP DCT TUFTA DCT KOGAS DCT MEDAM DCT NITAM DCT MOGBO DCT BELIX/N0483F370 DCT SALUN N705 MMA P751 DASUM Y234 FYM M872 LUBOS/N0486F390 M872 BDB Y214 RAPMA DCT KUVSO DCT KATIT DCT DANUX DCT TANSU/N0503F330 G783 VAVIM P899 ROVOS |
| Aircraft | MD11/H-SDE1E2E3FGHIJ2J3J4J5M1RWXY/LB1D1 |
Departure
| Time | N/A |
|---|---|
| Airport | Chicago O'Hare International Airport (KORD) |
Arrival
| Time | 2026-05-04 21:58 |
|---|---|
| Airport | Zayed International Airport (OMAA) |
| Time | Latitude | Longitude | Altitude | Speed | Heading |
|---|---|---|---|---|---|
| 2026-05-04 16:29 | 42.23401 | 11.97388 | 36138 ft | 522 kts | 135° |
| 2026-05-04 16:30 | 42.16176 | 12.08319 | 36973 ft | 520 kts | 135° |
| 2026-05-04 16:31 | 42.11365 | 12.15578 | 37203 ft | 519 kts | 135° |
| 2026-05-04 16:32 | 41.96935 | 12.37230 | 37128 ft | 518 kts | 135° |
| 2026-05-04 16:33 | 41.87292 | 12.51614 | 37129 ft | 518 kts | 135° |
| 2026-05-04 16:34 | 41.80042 | 12.62381 | 37129 ft | 518 kts | 135° |
| 2026-05-04 16:35 | 41.65477 | 12.83797 | 37153 ft | 519 kts | 135° |
| 2026-05-04 16:36 | 41.58217 | 12.94465 | 37156 ft | 520 kts | 135° |
| 2026-05-04 16:37 | 41.50908 | 13.05165 | 37150 ft | 520 kts | 135° |
| 2026-05-04 16:38 | 41.41140 | 13.19400 | 37126 ft | 522 kts | 135° |
| 2026-05-04 16:39 | 41.28866 | 13.37193 | 37130 ft | 522 kts | 135° |
| 2026-05-04 16:40 | 41.19019 | 13.51351 | 37135 ft | 522 kts | 135° |
| 2026-05-04 16:41 | 41.06645 | 13.69044 | 37132 ft | 523 kts | 135° |
| 2026-05-04 16:43 | 40.94306 | 13.86639 | 37134 ft | 523 kts | 135° |
| 2026-05-04 16:43 | 40.87652 | 13.96080 | 37132 ft | 525 kts | 135° |
| 2026-05-04 16:45 | 40.72724 | 14.17156 | 37133 ft | 525 kts | 135° |
| 2026-05-04 16:46 | 40.60169 | 14.34707 | 37135 ft | 528 kts | 135° |
| 2026-05-04 16:47 | 40.50087 | 14.48744 | 37132 ft | 528 kts | 135° |
| 2026-05-04 16:48 | 40.40002 | 14.62752 | 37125 ft | 528 kts | 135° |
| 2026-05-04 16:49 | 40.29891 | 14.76728 | 37129 ft | 528 kts | 135° |
| 2026-05-04 16:50 | 40.19765 | 14.90659 | 37129 ft | 528 kts | 135° |
| 2026-05-04 16:51 | 40.12159 | 15.01079 | 37126 ft | 529 kts | 134° |
| 2026-05-04 16:52 | 40.01963 | 15.14931 | 37129 ft | 529 kts | 135° |
| 2026-05-04 16:53 | 39.94316 | 15.25301 | 37129 ft | 529 kts | 135° |
| 2026-05-04 16:54 | 39.84110 | 15.39120 | 37123 ft | 530 kts | 134° |
| 2026-05-04 16:55 | 39.68792 | 15.59737 | 37129 ft | 529 kts | 135° |
| 2026-05-04 16:56 | 39.55969 | 15.76888 | 37129 ft | 530 kts | 134° |
| 2026-05-04 16:57 | 39.48266 | 15.87121 | 37127 ft | 530 kts | 135° |
| 2026-05-04 16:58 | 39.37954 | 16.00738 | 37149 ft | 530 kts | 134° |
| 2026-05-04 17:00 | 39.22449 | 16.21188 | 37131 ft | 531 kts | 135° |
| 2026-05-04 17:01 | 39.09506 | 16.38150 | 37139 ft | 532 kts | 134° |
| 2026-05-04 17:02 | 38.99135 | 16.51674 | 37131 ft | 532 kts | 134° |
| 2026-05-04 17:03 | 38.91324 | 16.61810 | 37129 ft | 532 kts | 135° |
| 2026-05-04 17:03 | 38.83483 | 16.71902 | 37137 ft | 533 kts | 135° |
| 2026-05-04 17:04 | 38.73014 | 16.85395 | 37121 ft | 534 kts | 135° |
| 2026-05-04 17:05 | 38.62536 | 16.98850 | 37121 ft | 534 kts | 135° |
| 2026-05-04 17:06 | 38.54661 | 17.08922 | 37128 ft | 534 kts | 135° |
| 2026-05-04 17:07 | 38.47659 | 17.17849 | 37127 ft | 535 kts | 135° |
| 2026-05-04 17:07 | 38.41499 | 17.25682 | 37129 ft | 535 kts | 135° |
| 2026-05-04 17:08 | 38.33590 | 17.35706 | 37132 ft | 535 kts | 135° |
| 2026-05-04 17:09 | 38.28293 | 17.42362 | 37139 ft | 535 kts | 135° |
| 2026-05-04 17:09 | 38.23002 | 17.49010 | 37132 ft | 535 kts | 135° |
| 2026-05-04 17:10 | 38.09796 | 17.65606 | 37138 ft | 535 kts | 135° |
| 2026-05-04 17:11 | 38.04497 | 17.72242 | 37138 ft | 535 kts | 135° |
| 2026-05-04 17:12 | 37.96543 | 17.82173 | 37130 ft | 535 kts | 135° |
| 2026-05-04 17:13 | 37.83273 | 17.98672 | 37143 ft | 535 kts | 135° |
| 2026-05-04 17:14 | 37.72661 | 18.11791 | 37143 ft | 535 kts | 135° |
| 2026-05-04 17:15 | 37.64642 | 18.21623 | 37145 ft | 536 kts | 135° |
| 2026-05-04 17:16 | 37.53954 | 18.34745 | 37144 ft | 536 kts | 135° |
| 2026-05-04 17:17 | 37.43261 | 18.47824 | 37149 ft | 535 kts | 135° |
| 2026-05-04 17:18 | 37.32568 | 18.60846 | 37154 ft | 535 kts | 136° |
| 2026-05-04 17:19 | 37.21852 | 18.73842 | 37154 ft | 535 kts | 136° |
| 2026-05-04 17:20 | 37.11119 | 18.86779 | 37150 ft | 535 kts | 136° |
| 2026-05-04 17:20 | 37.03042 | 18.96458 | 37157 ft | 536 kts | 136° |
| 2026-05-04 17:21 | 36.92315 | 19.09317 | 37154 ft | 536 kts | 136° |
| 2026-05-04 17:22 | 36.87258 | 19.16118 | 37157 ft | 533 kts | 124° |
| 2026-05-04 17:23 | 36.79482 | 19.31833 | 37157 ft | 532 kts | 118° |
| 2026-05-04 17:24 | 36.73658 | 19.43635 | 37156 ft | 532 kts | 120° |
| 2026-05-04 17:25 | 36.65775 | 19.59217 | 37156 ft | 531 kts | 120° |
| 2026-05-04 17:26 | 36.57889 | 19.74764 | 37156 ft | 531 kts | 120° |
| 2026-05-04 17:27 | 36.48053 | 19.94061 | 37139 ft | 528 kts | 121° |
| 2026-05-04 17:28 | 36.40113 | 20.09487 | 37158 ft | 530 kts | 121° |
| 2026-05-04 17:29 | 36.28901 | 20.31215 | 37154 ft | 527 kts | 121° |
| 2026-05-04 17:31 | 36.18353 | 20.51563 | 37158 ft | 525 kts | 121° |
| 2026-05-04 17:32 | 36.09104 | 20.69305 | 37154 ft | 526 kts | 121° |
| 2026-05-04 17:33 | 36.01176 | 20.84440 | 37160 ft | 525 kts | 122° |
| 2026-05-04 17:34 | 35.93185 | 20.99540 | 37154 ft | 525 kts | 122° |
| 2026-05-04 17:35 | 35.83212 | 21.18388 | 37146 ft | 525 kts | 122° |
| 2026-05-04 17:36 | 35.79218 | 21.25912 | 37151 ft | 525 kts | 122° |
| 2026-05-04 17:36 | 35.75217 | 21.33434 | 37155 ft | 525 kts | 122° |
| 2026-05-04 17:37 | 35.71208 | 21.40955 | 37156 ft | 526 kts | 122° |
| 2026-05-04 17:37 | 35.67190 | 21.48473 | 37157 ft | 526 kts | 122° |
| 2026-05-04 17:38 | 35.63166 | 21.55988 | 37147 ft | 526 kts | 122° |
| 2026-05-04 17:38 | 35.59140 | 21.63491 | 37151 ft | 526 kts | 122° |
| 2026-05-04 17:39 | 35.53081 | 21.74738 | 37151 ft | 526 kts | 122° |
| 2026-05-04 17:39 | 35.49026 | 21.82198 | 37154 ft | 526 kts | 122° |
| 2026-05-04 17:40 | 35.44961 | 21.89690 | 37155 ft | 527 kts | 122° |
| 2026-05-04 17:40 | 35.40927 | 21.97131 | 37141 ft | 527 kts | 122° |
| 2026-05-04 17:41 | 35.36866 | 22.04613 | 37162 ft | 528 kts | 122° |
| 2026-05-04 17:41 | 35.32790 | 22.12104 | 37165 ft | 528 kts | 123° |
| 2026-05-04 17:42 | 35.28722 | 22.19563 | 37167 ft | 529 kts | 123° |
| 2026-05-04 17:42 | 35.24631 | 22.27047 | 37153 ft | 529 kts | 123° |
| 2026-05-04 17:43 | 35.20542 | 22.34512 | 37159 ft | 529 kts | 123° |
| 2026-05-04 17:43 | 35.16444 | 22.41977 | 37163 ft | 529 kts | 123° |
| 2026-05-04 17:44 | 35.12336 | 22.49445 | 37166 ft | 530 kts | 123° |
| 2026-05-04 17:44 | 35.08217 | 22.56918 | 37158 ft | 531 kts | 123° |
| 2026-05-04 17:45 | 35.04073 | 22.64372 | 37138 ft | 531 kts | 123° |
| 2026-05-04 17:45 | 34.99924 | 22.71829 | 37154 ft | 531 kts | 123° |
| 2026-05-04 17:46 | 34.95778 | 22.79293 | 37171 ft | 531 kts | 123° |
| 2026-05-04 17:46 | 34.91633 | 22.86751 | 37158 ft | 532 kts | 123° |
| 2026-05-04 17:47 | 34.87481 | 22.94206 | 37161 ft | 532 kts | 123° |
| 2026-05-04 17:47 | 34.83317 | 23.01663 | 37157 ft | 532 kts | 123° |
| 2026-05-04 17:48 | 34.79150 | 23.09112 | 37158 ft | 532 kts | 124° |
| 2026-05-04 17:48 | 34.74983 | 23.16544 | 37164 ft | 532 kts | 124° |
| 2026-05-04 17:49 | 34.70803 | 23.23983 | 37154 ft | 533 kts | 124° |
| 2026-05-04 17:49 | 34.66617 | 23.31417 | 37151 ft | 533 kts | 124° |
| 2026-05-04 17:50 | 34.62423 | 23.38851 | 37163 ft | 534 kts | 124° |
| 2026-05-04 17:50 | 34.58206 | 23.46276 | 37170 ft | 534 kts | 124° |
| 2026-05-04 17:51 | 34.53978 | 23.53695 | 37158 ft | 535 kts | 124° |
| 2026-05-04 17:51 | 34.49783 | 23.61071 | 37158 ft | 534 kts | 124° |
| 2026-05-04 17:52 | 34.45563 | 23.68489 | 37156 ft | 534 kts | 124° |
| 2026-05-04 17:52 | 34.41340 | 23.75897 | 37177 ft | 535 kts | 124° |
| 2026-05-04 17:53 | 34.37097 | 23.83326 | 37158 ft | 537 kts | 124° |
| 2026-05-04 17:53 | 34.32845 | 23.90751 | 37156 ft | 537 kts | 124° |
| 2026-05-04 17:54 | 34.28584 | 23.98178 | 37151 ft | 537 kts | 125° |
| 2026-05-04 17:54 | 34.24326 | 24.05585 | 37156 ft | 537 kts | 125° |
| 2026-05-04 17:55 | 34.20059 | 24.12993 | 37155 ft | 537 kts | 125° |
| 2026-05-04 17:55 | 34.15786 | 24.20395 | 37159 ft | 537 kts | 125° |
| 2026-05-04 17:56 | 34.11497 | 24.27788 | 37155 ft | 537 kts | 125° |
| 2026-05-04 17:56 | 34.07191 | 24.35160 | 37158 ft | 537 kts | 126° |
| 2026-05-04 17:57 | 34.02244 | 24.41826 | 37161 ft | 535 kts | 139° |
| 2026-05-04 17:57 | 33.96717 | 24.47733 | 37158 ft | 534 kts | 141° |
| 2026-05-04 17:58 | 33.91113 | 24.53604 | 37148 ft | 534 kts | 141° |
| 2026-05-04 17:58 | 33.85569 | 24.59555 | 37157 ft | 534 kts | 140° |
| 2026-05-04 17:59 | 33.80052 | 24.65541 | 37155 ft | 534 kts | 140° |
| 2026-05-04 18:00 | 33.71777 | 24.74506 | 37153 ft | 534 kts | 140° |
| 2026-05-04 18:00 | 33.66248 | 24.80473 | 37162 ft | 534 kts | 140° |
| 2026-05-04 18:01 | 33.60719 | 24.86429 | 37149 ft | 534 kts | 140° |
| 2026-05-04 18:01 | 33.55194 | 24.92369 | 37153 ft | 533 kts | 140° |
| 2026-05-04 18:02 | 33.46904 | 25.01262 | 37163 ft | 533 kts | 141° |
| 2026-05-04 18:02 | 33.41367 | 25.07176 | 37154 ft | 533 kts | 141° |
| 2026-05-04 18:03 | 33.35822 | 25.13073 | 37169 ft | 533 kts | 141° |
| 2026-05-04 18:03 | 33.30279 | 25.18974 | 37154 ft | 533 kts | 141° |
| 2026-05-04 18:04 | 33.24775 | 25.24835 | 37157 ft | 533 kts | 141° |
| 2026-05-04 18:05 | 33.16461 | 25.33669 | 37175 ft | 533 kts | 141° |
| 2026-05-04 18:05 | 33.10918 | 25.39545 | 37160 ft | 533 kts | 141° |
| 2026-05-04 18:06 | 33.02587 | 25.48356 | 37153 ft | 533 kts | 141° |
| 2026-05-04 18:06 | 32.97039 | 25.54211 | 37153 ft | 533 kts | 141° |
| 2026-05-04 18:07 | 32.91482 | 25.60065 | 37164 ft | 533 kts | 141° |
| 2026-05-04 18:07 | 32.85923 | 25.65911 | 37168 ft | 533 kts | 142° |
| 2026-05-04 18:08 | 32.80366 | 25.71739 | 37160 ft | 533 kts | 142° |
| 2026-05-04 18:08 | 32.74790 | 25.77553 | 37158 ft | 533 kts | 142° |
| 2026-05-04 18:09 | 32.63668 | 25.89164 | 37158 ft | 532 kts | 142° |
| 2026-05-04 18:10 | 32.58142 | 25.94927 | 37159 ft | 532 kts | 142° |
| 2026-05-04 18:10 | 32.52548 | 26.00749 | 37159 ft | 531 kts | 142° |
| 2026-05-04 18:11 | 32.46992 | 26.06522 | 37157 ft | 531 kts | 142° |
| 2026-05-04 18:11 | 32.41472 | 26.12247 | 37157 ft | 531 kts | 142° |
| 2026-05-04 18:12 | 32.35928 | 26.17986 | 37152 ft | 531 kts | 142° |
| 2026-05-04 18:12 | 32.30364 | 26.23738 | 37156 ft | 531 kts | 142° |
| 2026-05-04 18:13 | 32.24801 | 26.29479 | 37156 ft | 530 kts | 142° |
| 2026-05-04 18:14 | 32.16458 | 26.38058 | 37158 ft | 530 kts | 142° |
| 2026-05-04 18:14 | 32.10885 | 26.43757 | 37159 ft | 530 kts | 142° |
| 2026-05-04 18:15 | 31.99770 | 26.55141 | 37159 ft | 528 kts | 143° |
| 2026-05-04 18:16 | 31.94226 | 26.60811 | 37160 ft | 528 kts | 143° |
| 2026-05-04 18:16 | 31.88681 | 26.66470 | 37161 ft | 527 kts | 143° |
| 2026-05-04 18:17 | 31.81292 | 26.73996 | 37160 ft | 527 kts | 143° |
| 2026-05-04 18:18 | 31.72966 | 26.82458 | 37151 ft | 528 kts | 143° |
| 2026-05-04 18:18 | 31.67400 | 26.88102 | 37166 ft | 529 kts | 144° |
| 2026-05-04 18:19 | 31.59054 | 26.96551 | 37165 ft | 528 kts | 144° |
| 2026-05-04 18:19 | 31.53483 | 27.02166 | 37162 ft | 528 kts | 144° |
| 2026-05-04 18:20 | 31.47910 | 27.07761 | 37167 ft | 528 kts | 144° |
| 2026-05-04 18:20 | 31.42334 | 27.13364 | 37129 ft | 528 kts | 144° |
| 2026-05-04 18:21 | 31.36742 | 27.18983 | 37188 ft | 531 kts | 144° |
| 2026-05-04 18:21 | 31.31193 | 27.24589 | 37181 ft | 532 kts | 141° |
| 2026-05-04 18:22 | 31.26426 | 27.31282 | 37185 ft | 540 kts | 127° |
| 2026-05-04 18:22 | 31.22351 | 27.38673 | 37179 ft | 541 kts | 125° |
| 2026-05-04 18:23 | 31.18279 | 27.46079 | 37171 ft | 541 kts | 126° |
| 2026-05-04 18:23 | 31.14106 | 27.53378 | 37165 ft | 540 kts | 128° |
| 2026-05-04 18:24 | 31.09838 | 27.60583 | 37164 ft | 540 kts | 128° |
| 2026-05-04 18:24 | 31.05533 | 27.67762 | 37115 ft | 540 kts | 128° |
| 2026-05-04 18:25 | 31.01215 | 27.74969 | 37152 ft | 544 kts | 128° |
| 2026-05-04 18:25 | 30.96890 | 27.82199 | 37172 ft | 544 kts | 128° |
| 2026-05-04 18:26 | 30.92588 | 27.89379 | 37164 ft | 544 kts | 128° |
| 2026-05-04 18:26 | 30.88256 | 27.96596 | 37149 ft | 544 kts | 129° |
| 2026-05-04 18:27 | 30.83931 | 28.03786 | 37164 ft | 544 kts | 129° |
| 2026-05-04 18:27 | 30.79590 | 28.10990 | 37151 ft | 543 kts | 129° |
| 2026-05-04 18:28 | 30.75249 | 28.18179 | 37149 ft | 543 kts | 129° |
| 2026-05-04 18:28 | 30.70902 | 28.25366 | 37158 ft | 543 kts | 129° |
| 2026-05-04 18:29 | 30.66555 | 28.32539 | 37145 ft | 543 kts | 129° |
| 2026-05-04 18:29 | 30.62185 | 28.39700 | 37137 ft | 542 kts | 129° |
| 2026-05-04 18:30 | 30.55654 | 28.50402 | 37151 ft | 542 kts | 129° |
| 2026-05-04 18:31 | 30.51302 | 28.57538 | 37152 ft | 542 kts | 129° |
| 2026-05-04 18:31 | 30.46946 | 28.64671 | 37148 ft | 542 kts | 129° |
| 2026-05-04 18:32 | 30.42623 | 28.71736 | 37150 ft | 541 kts | 130° |
| 2026-05-04 18:32 | 30.38266 | 28.78843 | 37138 ft | 541 kts | 130° |
| 2026-05-04 18:33 | 30.33901 | 28.85950 | 37141 ft | 541 kts | 130° |
| 2026-05-04 18:33 | 30.29536 | 28.93045 | 37132 ft | 541 kts | 130° |
| 2026-05-04 18:34 | 30.25171 | 29.00127 | 37131 ft | 540 kts | 130° |
| 2026-05-04 18:34 | 30.20812 | 29.07187 | 37114 ft | 539 kts | 130° |
| 2026-05-04 18:35 | 30.16443 | 29.14235 | 37120 ft | 539 kts | 130° |
| 2026-05-04 18:35 | 30.12092 | 29.21286 | 37118 ft | 539 kts | 130° |
| 2026-05-04 18:36 | 30.07802 | 29.28401 | 37115 ft | 539 kts | 129° |
| 2026-05-04 18:36 | 30.03539 | 29.35521 | 37117 ft | 539 kts | 129° |
| 2026-05-04 18:37 | 29.99271 | 29.42628 | 37112 ft | 539 kts | 130° |
| 2026-05-04 18:37 | 29.94993 | 29.49726 | 37110 ft | 539 kts | 130° |
| 2026-05-04 18:38 | 29.90714 | 29.56814 | 37111 ft | 538 kts | 130° |
| 2026-05-04 18:38 | 29.86433 | 29.63890 | 37111 ft | 538 kts | 130° |
| 2026-05-04 18:39 | 29.82146 | 29.70963 | 37110 ft | 538 kts | 130° |
| 2026-05-04 18:39 | 29.77860 | 29.78025 | 37111 ft | 538 kts | 130° |
| 2026-05-04 18:40 | 29.73569 | 29.85082 | 37105 ft | 538 kts | 130° |
| 2026-05-04 18:40 | 29.69275 | 29.92132 | 37106 ft | 537 kts | 130° |
| 2026-05-04 18:41 | 29.65008 | 29.99118 | 37111 ft | 537 kts | 131° |
| 2026-05-04 18:41 | 29.60693 | 30.06138 | 37106 ft | 537 kts | 131° |
| 2026-05-04 18:42 | 29.56386 | 30.13152 | 37100 ft | 537 kts | 131° |
| 2026-05-04 18:42 | 29.52107 | 30.20128 | 37104 ft | 536 kts | 131° |
| 2026-05-04 18:43 | 29.47815 | 30.27115 | 37102 ft | 536 kts | 131° |
| 2026-05-04 18:43 | 29.43514 | 30.34095 | 37106 ft | 534 kts | 132° |
| 2026-05-04 18:44 | 29.38773 | 30.40565 | 37078 ft | 526 kts | 140° |
| 2026-05-04 18:44 | 29.33695 | 30.46564 | 37103 ft | 524 kts | 142° |
| 2026-05-04 18:45 | 29.28597 | 30.52534 | 37101 ft | 524 kts | 141° |
| 2026-05-04 18:45 | 29.23536 | 30.58556 | 37099 ft | 524 kts | 141° |
| 2026-05-04 18:46 | 29.18496 | 30.64588 | 37100 ft | 524 kts | 141° |
| 2026-05-04 18:46 | 29.13452 | 30.70622 | 37096 ft | 524 kts | 141° |
| 2026-05-04 18:47 | 29.08405 | 30.76643 | 37101 ft | 524 kts | 141° |
| 2026-05-04 18:47 | 29.03358 | 30.82653 | 37081 ft | 524 kts | 141° |
| 2026-05-04 18:48 | 28.98308 | 30.88658 | 37099 ft | 524 kts | 141° |
| 2026-05-04 18:48 | 28.93253 | 30.94659 | 37099 ft | 524 kts | 141° |
| 2026-05-04 18:49 | 28.88235 | 31.00609 | 37099 ft | 523 kts | 141° |
| 2026-05-04 18:49 | 28.83180 | 31.06582 | 37088 ft | 523 kts | 141° |
| 2026-05-04 18:50 | 28.78118 | 31.12538 | 37108 ft | 523 kts | 141° |
| 2026-05-04 18:50 | 28.73060 | 31.18496 | 37090 ft | 523 kts | 141° |
| 2026-05-04 18:51 | 28.68054 | 31.24530 | 37049 ft | 525 kts | 140° |
| 2026-05-04 18:51 | 28.63190 | 31.30687 | 37101 ft | 522 kts | 139° |
| 2026-05-04 18:52 | 28.58350 | 31.36856 | 37102 ft | 522 kts | 139° |
| 2026-05-04 18:52 | 28.53501 | 31.43004 | 37106 ft | 522 kts | 139° |
| 2026-05-04 18:53 | 28.48645 | 31.49133 | 37109 ft | 522 kts | 140° |
| 2026-05-04 18:53 | 28.43787 | 31.55255 | 37102 ft | 520 kts | 140° |
| 2026-05-04 18:54 | 28.38970 | 31.61317 | 37108 ft | 520 kts | 140° |
| 2026-05-04 18:54 | 28.34121 | 31.67410 | 37108 ft | 520 kts | 140° |
| 2026-05-04 18:55 | 28.29272 | 31.73494 | 37108 ft | 519 kts | 140° |
| 2026-05-04 18:55 | 28.22011 | 31.82588 | 37107 ft | 518 kts | 140° |
| 2026-05-04 18:56 | 28.17172 | 31.88638 | 37109 ft | 517 kts | 140° |
| 2026-05-04 18:56 | 28.12329 | 31.94668 | 37111 ft | 517 kts | 140° |
| 2026-05-04 18:57 | 28.07495 | 32.00668 | 37112 ft | 517 kts | 140° |
| 2026-05-04 18:57 | 28.02684 | 32.06729 | 37113 ft | 521 kts | 136° |
| 2026-05-04 18:58 | 27.98723 | 32.13722 | 37099 ft | 534 kts | 125° |
| 2026-05-04 18:58 | 27.95311 | 32.21199 | 37090 ft | 535 kts | 123° |
| 2026-05-04 18:59 | 27.91883 | 32.28669 | 37088 ft | 534 kts | 124° |
| 2026-05-04 18:59 | 27.88364 | 32.36067 | 37052 ft | 534 kts | 125° |
| 2026-05-04 19:00 | 27.84807 | 32.43439 | 37055 ft | 535 kts | 126° |
| 2026-05-04 19:00 | 27.81267 | 32.50764 | 37056 ft | 534 kts | 126° |
| 2026-05-04 19:01 | 27.77706 | 32.58134 | 37046 ft | 534 kts | 125° |
| 2026-05-04 19:01 | 27.74147 | 32.65492 | 37036 ft | 534 kts | 126° |
| 2026-05-04 19:02 | 27.70587 | 32.72840 | 37042 ft | 533 kts | 126° |
| 2026-05-04 19:02 | 27.67025 | 32.80175 | 37040 ft | 533 kts | 126° |
| 2026-05-04 19:03 | 27.63460 | 32.87506 | 37037 ft | 533 kts | 126° |
| 2026-05-04 19:03 | 27.59879 | 32.94823 | 37036 ft | 533 kts | 126° |
| 2026-05-04 19:04 | 27.56290 | 33.02138 | 37042 ft | 533 kts | 126° |
| 2026-05-04 19:04 | 27.52712 | 33.09449 | 37035 ft | 533 kts | 126° |
| 2026-05-04 19:05 | 27.49133 | 33.16759 | 37033 ft | 533 kts | 126° |
| 2026-05-04 19:05 | 27.45541 | 33.24080 | 37029 ft | 534 kts | 126° |
| 2026-05-04 19:06 | 27.42548 | 33.30172 | 37032 ft | 534 kts | 126° |
| 2026-05-04 19:06 | 27.38949 | 33.37488 | 37027 ft | 534 kts | 126° |
| 2026-05-04 19:07 | 27.35337 | 33.44790 | 36990 ft | 534 kts | 126° |
| 2026-05-04 19:07 | 27.31137 | 33.53275 | 37013 ft | 534 kts | 126° |
| 2026-05-04 19:08 | 27.28109 | 33.59393 | 37014 ft | 534 kts | 126° |
| 2026-05-04 19:08 | 27.24494 | 33.66692 | 37018 ft | 534 kts | 126° |
| 2026-05-04 19:09 | 27.20871 | 33.73990 | 37010 ft | 536 kts | 127° |
| 2026-05-04 19:09 | 27.17320 | 33.81297 | 36992 ft | 539 kts | 123° |
| 2026-05-04 19:10 | 27.14790 | 33.87793 | 36993 ft | 545 kts | 118° |
| 2026-05-04 19:10 | 27.11630 | 33.97029 | 36973 ft | 545 kts | 117° |
| 2026-05-04 19:11 | 27.08894 | 34.04968 | 36989 ft | 544 kts | 118° |
| 2026-05-04 19:11 | 27.06106 | 34.12861 | 36989 ft | 544 kts | 118° |
| 2026-05-04 19:12 | 27.01896 | 34.24656 | 36979 ft | 543 kts | 119° |
| 2026-05-04 19:13 | 26.99068 | 34.32513 | 36985 ft | 543 kts | 119° |
| 2026-05-04 19:13 | 26.96243 | 34.40357 | 36985 ft | 543 kts | 119° |
| 2026-05-04 19:14 | 26.93415 | 34.48206 | 36955 ft | 543 kts | 119° |
| 2026-05-04 19:14 | 26.90584 | 34.56052 | 36989 ft | 543 kts | 119° |
| 2026-05-04 19:15 | 26.87753 | 34.63885 | 36969 ft | 543 kts | 119° |
| 2026-05-04 19:15 | 26.84914 | 34.71719 | 36985 ft | 543 kts | 119° |
| 2026-05-04 19:16 | 26.82069 | 34.79556 | 36978 ft | 543 kts | 119° |
| 2026-05-04 19:16 | 26.79218 | 34.87393 | 36977 ft | 543 kts | 119° |
| 2026-05-04 19:17 | 26.76359 | 34.95221 | 36975 ft | 543 kts | 119° |
| 2026-05-04 19:17 | 26.73491 | 35.03034 | 36971 ft | 543 kts | 119° |
| 2026-05-04 19:18 | 26.70643 | 35.10805 | 36972 ft | 543 kts | 119° |
| 2026-05-04 19:18 | 26.67780 | 35.18621 | 36973 ft | 543 kts | 119° |
| 2026-05-04 19:19 | 26.64912 | 35.26435 | 36953 ft | 543 kts | 119° |
| 2026-05-04 19:19 | 26.62043 | 35.34236 | 36968 ft | 543 kts | 119° |
| 2026-05-04 19:20 | 26.59166 | 35.42042 | 36966 ft | 543 kts | 119° |
| 2026-05-04 19:20 | 26.56275 | 35.49833 | 36961 ft | 542 kts | 120° |
| 2026-05-04 19:21 | 26.53336 | 35.57580 | 36956 ft | 542 kts | 120° |
| 2026-05-04 19:21 | 26.50386 | 35.65323 | 36958 ft | 542 kts | 120° |
| 2026-05-04 19:22 | 26.47440 | 35.73059 | 36953 ft | 542 kts | 120° |
| 2026-05-04 19:22 | 26.44493 | 35.80797 | 36923 ft | 541 kts | 120° |
| 2026-05-04 19:23 | 26.41552 | 35.88509 | 36949 ft | 540 kts | 120° |
| 2026-05-04 19:23 | 26.38629 | 35.96151 | 36947 ft | 539 kts | 120° |
| 2026-05-04 19:24 | 26.35678 | 36.03852 | 36944 ft | 539 kts | 120° |
| 2026-05-04 19:24 | 26.32726 | 36.11540 | 36942 ft | 539 kts | 120° |
| 2026-05-04 19:25 | 26.29770 | 36.19227 | 36945 ft | 539 kts | 120° |
| 2026-05-04 19:25 | 26.26809 | 36.26912 | 36926 ft | 539 kts | 121° |
| 2026-05-04 19:26 | 26.23845 | 36.34578 | 36941 ft | 538 kts | 121° |
| 2026-05-04 19:26 | 26.20864 | 36.42229 | 36930 ft | 538 kts | 121° |
| 2026-05-04 19:27 | 26.17617 | 36.49622 | 36945 ft | 532 kts | 126° |
| 2026-05-04 19:27 | 26.14072 | 36.56808 | 36929 ft | 531 kts | 127° |
| 2026-05-04 19:28 | 26.10490 | 36.63990 | 36932 ft | 531 kts | 127° |
| 2026-05-04 19:28 | 26.06938 | 36.71192 | 36933 ft | 531 kts | 127° |
| 2026-05-04 19:29 | 26.03401 | 36.78399 | 36923 ft | 530 kts | 127° |
| 2026-05-04 19:29 | 25.99867 | 36.85592 | 36935 ft | 529 kts | 127° |
| 2026-05-04 19:30 | 25.96337 | 36.92760 | 36936 ft | 529 kts | 127° |
| 2026-05-04 19:30 | 25.92799 | 36.99927 | 36917 ft | 529 kts | 127° |
| 2026-05-04 19:31 | 25.89265 | 37.07080 | 36935 ft | 528 kts | 127° |
| 2026-05-04 19:31 | 25.85749 | 37.14183 | 36925 ft | 528 kts | 127° |
| 2026-05-04 19:32 | 25.82211 | 37.21317 | 36932 ft | 528 kts | 127° |
| 2026-05-04 19:32 | 25.78664 | 37.28434 | 36929 ft | 526 kts | 127° |
| 2026-05-04 19:33 | 25.75119 | 37.35533 | 36942 ft | 526 kts | 127° |
| 2026-05-04 19:33 | 25.71576 | 37.42636 | 36952 ft | 527 kts | 127° |
| 2026-05-04 19:34 | 25.68030 | 37.49747 | 36953 ft | 527 kts | 127° |
| 2026-05-04 19:34 | 25.64482 | 37.56854 | 36967 ft | 526 kts | 127° |
| 2026-05-04 19:35 | 25.60935 | 37.63944 | 36950 ft | 526 kts | 127° |
| 2026-05-04 19:35 | 25.57386 | 37.71028 | 36949 ft | 525 kts | 127° |
| 2026-05-04 19:36 | 25.53833 | 37.78107 | 36945 ft | 525 kts | 127° |
| 2026-05-04 19:36 | 25.50282 | 37.85173 | 36937 ft | 525 kts | 127° |
| 2026-05-04 19:37 | 25.46725 | 37.92239 | 36928 ft | 525 kts | 127° |
| 2026-05-04 19:37 | 25.43163 | 37.99303 | 36924 ft | 526 kts | 127° |
| 2026-05-04 19:38 | 25.39586 | 38.06374 | 36922 ft | 527 kts | 127° |
| 2026-05-04 19:38 | 25.36018 | 38.13391 | 36924 ft | 527 kts | 128° |
| 2026-05-04 19:39 | 25.32420 | 38.20477 | 36908 ft | 527 kts | 128° |
| 2026-05-04 19:39 | 25.28848 | 38.27524 | 36923 ft | 525 kts | 128° |
| 2026-05-04 19:40 | 25.25273 | 38.34559 | 36930 ft | 525 kts | 128° |
| 2026-05-04 19:40 | 25.21696 | 38.41586 | 36937 ft | 525 kts | 128° |
| 2026-05-04 19:41 | 25.18115 | 38.48613 | 36944 ft | 524 kts | 128° |
| 2026-05-04 19:41 | 25.14525 | 38.55623 | 36942 ft | 525 kts | 128° |
| 2026-05-04 19:42 | 25.10933 | 38.62623 | 36932 ft | 524 kts | 128° |
| 2026-05-04 19:42 | 25.07357 | 38.69594 | 36946 ft | 523 kts | 128° |
| 2026-05-04 19:43 | 25.03775 | 38.76569 | 36954 ft | 523 kts | 128° |
| 2026-05-04 19:43 | 25.00188 | 38.83544 | 36952 ft | 523 kts | 128° |
| 2026-05-04 19:44 | 24.96590 | 38.90527 | 36949 ft | 524 kts | 128° |
| 2026-05-04 19:44 | 24.92974 | 38.97511 | 36961 ft | 525 kts | 128° |
| 2026-05-04 19:45 | 24.89352 | 39.04505 | 36968 ft | 525 kts | 128° |
| 2026-05-04 19:45 | 24.85730 | 39.11497 | 36969 ft | 525 kts | 128° |
| 2026-05-04 19:46 | 24.82120 | 39.18455 | 36967 ft | 528 kts | 128° |
| 2026-05-04 19:46 | 24.78480 | 39.25478 | 36976 ft | 529 kts | 128° |
| 2026-05-04 19:47 | 24.74842 | 39.32510 | 36977 ft | 529 kts | 128° |
| 2026-05-04 19:47 | 24.71198 | 39.39547 | 36980 ft | 531 kts | 128° |
| 2026-05-04 19:48 | 24.67540 | 39.46599 | 36975 ft | 531 kts | 128° |
| 2026-05-04 19:48 | 24.63874 | 39.53659 | 36976 ft | 531 kts | 128° |
| 2026-05-04 19:49 | 24.60207 | 39.60709 | 36956 ft | 530 kts | 127° |
| 2026-05-04 19:49 | 24.56554 | 39.67727 | 36968 ft | 529 kts | 127° |
| 2026-05-04 19:50 | 24.53776 | 39.75317 | 36964 ft | 547 kts | 108° |
| 2026-05-04 19:50 | 24.53223 | 39.79478 | 37104 ft | 554 kts | 99° |
| 2026-05-04 19:50 | 24.53010 | 39.83706 | 37456 ft | 554 kts | 96° |
| 2026-05-04 19:50 | 24.52864 | 39.87931 | 37796 ft | 553 kts | 96° |
| 2026-05-04 19:51 | 24.52664 | 39.92148 | 38114 ft | 552 kts | 98° |
| 2026-05-04 19:51 | 24.52381 | 39.96340 | 38414 ft | 550 kts | 99° |
| 2026-05-04 19:51 | 24.52027 | 40.00520 | 38692 ft | 549 kts | 100° |
| 2026-05-04 19:51 | 24.51632 | 40.04689 | 38875 ft | 549 kts | 101° |
| 2026-05-04 19:52 | 24.51219 | 40.08844 | 38938 ft | 547 kts | 101° |
| 2026-05-04 19:52 | 24.50387 | 40.17142 | 38962 ft | 546 kts | 101° |
| 2026-05-04 19:53 | 24.49569 | 40.25427 | 38951 ft | 546 kts | 101° |
| 2026-05-04 19:53 | 24.48757 | 40.33705 | 38956 ft | 545 kts | 101° |
| 2026-05-04 19:54 | 24.47942 | 40.41972 | 38957 ft | 545 kts | 101° |
| 2026-05-04 19:54 | 24.47128 | 40.50186 | 38954 ft | 544 kts | 101° |
| 2026-05-04 19:55 | 24.46305 | 40.58431 | 38957 ft | 543 kts | 101° |
| 2026-05-04 19:55 | 24.45461 | 40.66667 | 38960 ft | 543 kts | 101° |
| 2026-05-04 19:56 | 24.44608 | 40.74906 | 38963 ft | 544 kts | 101° |
| 2026-05-04 19:56 | 24.43897 | 40.81827 | 38961 ft | 544 kts | 101° |
| 2026-05-04 19:57 | 24.43056 | 40.90023 | 38960 ft | 545 kts | 101° |
| 2026-05-04 19:57 | 24.42211 | 40.98236 | 38961 ft | 542 kts | 101° |
| 2026-05-04 19:58 | 24.41358 | 41.06447 | 38969 ft | 542 kts | 101° |
| 2026-05-04 19:58 | 24.40496 | 41.14658 | 38960 ft | 541 kts | 101° |
| 2026-05-04 19:59 | 24.39639 | 41.22851 | 38971 ft | 540 kts | 101° |
| 2026-05-04 19:59 | 24.38782 | 41.31033 | 38974 ft | 540 kts | 101° |
| 2026-05-04 20:00 | 24.37922 | 41.39211 | 38972 ft | 540 kts | 101° |
| 2026-05-04 20:00 | 24.37057 | 41.47392 | 38976 ft | 540 kts | 101° |
| 2026-05-04 20:01 | 24.36187 | 41.55577 | 38976 ft | 540 kts | 101° |
| 2026-05-04 20:01 | 24.35314 | 41.63752 | 38972 ft | 540 kts | 101° |
| 2026-05-04 20:02 | 24.34436 | 41.71923 | 38972 ft | 540 kts | 101° |
| 2026-05-04 20:02 | 24.33519 | 41.80082 | 38995 ft | 537 kts | 104° |
| 2026-05-04 20:03 | 24.31834 | 41.88010 | 38973 ft | 532 kts | 112° |
| 2026-05-04 20:03 | 24.29727 | 41.95711 | 38971 ft | 531 kts | 113° |
| 2026-05-04 20:04 | 24.27595 | 42.03512 | 38969 ft | 531 kts | 112° |
| 2026-05-04 20:04 | 24.25541 | 42.11278 | 38973 ft | 531 kts | 111° |
| 2026-05-04 20:05 | 24.23518 | 42.19002 | 38972 ft | 531 kts | 111° |
| 2026-05-04 20:05 | 24.21481 | 42.26761 | 38964 ft | 529 kts | 111° |
| 2026-05-04 20:06 | 24.19440 | 42.34505 | 38967 ft | 529 kts | 111° |
| 2026-05-04 20:06 | 24.17394 | 42.42241 | 38956 ft | 529 kts | 111° |
| 2026-05-04 20:07 | 24.15346 | 42.49972 | 38967 ft | 529 kts | 111° |
| 2026-05-04 20:07 | 24.13294 | 42.57701 | 38969 ft | 528 kts | 111° |
| 2026-05-04 20:08 | 24.11238 | 42.65426 | 38961 ft | 529 kts | 111° |
| 2026-05-04 20:08 | 24.09165 | 42.73153 | 38965 ft | 529 kts | 111° |
| 2026-05-04 20:09 | 24.07089 | 42.80863 | 38971 ft | 529 kts | 111° |
| 2026-05-04 20:09 | 24.05016 | 42.88584 | 38967 ft | 528 kts | 111° |
| 2026-05-04 20:10 | 24.02942 | 42.96293 | 38969 ft | 528 kts | 111° |
| 2026-05-04 20:10 | 24.00866 | 43.04003 | 38970 ft | 529 kts | 111° |
| 2026-05-04 20:11 | 23.98784 | 43.11725 | 38983 ft | 529 kts | 111° |
| 2026-05-04 20:11 | 23.96711 | 43.19399 | 38989 ft | 530 kts | 111° |
| 2026-05-04 20:12 | 23.94619 | 43.27124 | 38975 ft | 530 kts | 111° |
| 2026-05-04 20:12 | 23.92529 | 43.34824 | 38976 ft | 530 kts | 111° |
| 2026-05-04 20:13 | 23.90428 | 43.42547 | 38981 ft | 530 kts | 111° |
| 2026-05-04 20:13 | 23.88323 | 43.50269 | 38969 ft | 530 kts | 111° |
| 2026-05-04 20:14 | 23.86214 | 43.57990 | 38971 ft | 530 kts | 111° |
| 2026-05-04 20:14 | 23.84103 | 43.65702 | 38964 ft | 530 kts | 111° |
| 2026-05-04 20:15 | 23.81987 | 43.73416 | 38956 ft | 530 kts | 111° |
| 2026-05-04 20:15 | 23.79855 | 43.81113 | 38956 ft | 529 kts | 111° |
| 2026-05-04 20:16 | 23.77758 | 43.88801 | 38941 ft | 529 kts | 108° |
| 2026-05-04 20:16 | 23.76654 | 43.96769 | 38940 ft | 533 kts | 98° |
| 2026-05-04 20:17 | 23.76185 | 44.04856 | 38923 ft | 533 kts | 96° |
| 2026-05-04 20:17 | 23.75712 | 44.12907 | 38926 ft | 530 kts | 97° |
| 2026-05-04 20:18 | 23.75146 | 44.20894 | 38938 ft | 533 kts | 98° |
| 2026-05-04 20:18 | 23.74537 | 44.28940 | 38929 ft | 530 kts | 98° |
| 2026-05-04 20:19 | 23.73926 | 44.36949 | 38930 ft | 530 kts | 98° |
| 2026-05-04 20:19 | 23.73316 | 44.44958 | 38927 ft | 529 kts | 98° |
| 2026-05-04 20:20 | 23.72704 | 44.52963 | 38936 ft | 529 kts | 98° |
| 2026-05-04 20:20 | 23.72087 | 44.60968 | 38934 ft | 529 kts | 98° |
| 2026-05-04 20:21 | 23.71467 | 44.68963 | 38930 ft | 529 kts | 98° |
| 2026-05-04 20:21 | 23.70527 | 44.80948 | 38932 ft | 528 kts | 98° |
| 2026-05-04 20:22 | 23.69878 | 44.88930 | 38928 ft | 528 kts | 98° |
| 2026-05-04 20:22 | 23.69229 | 44.96926 | 38937 ft | 529 kts | 98° |
| 2026-05-04 20:23 | 23.68583 | 45.04927 | 38912 ft | 529 kts | 98° |
| 2026-05-04 20:23 | 23.67940 | 45.12893 | 38923 ft | 527 kts | 98° |
| 2026-05-04 20:24 | 23.67296 | 45.20803 | 38923 ft | 526 kts | 98° |
| 2026-05-04 20:24 | 23.66638 | 45.28750 | 38912 ft | 526 kts | 98° |
| 2026-05-04 20:25 | 23.65974 | 45.36758 | 38908 ft | 527 kts | 98° |
| 2026-05-04 20:25 | 23.65318 | 45.44660 | 38903 ft | 527 kts | 98° |
| 2026-05-04 20:26 | 23.64655 | 45.52612 | 38905 ft | 527 kts | 98° |
| 2026-05-04 20:26 | 23.63988 | 45.60556 | 38895 ft | 525 kts | 98° |
| 2026-05-04 20:27 | 23.63314 | 45.68448 | 38897 ft | 524 kts | 98° |
| 2026-05-04 20:27 | 23.62634 | 45.76357 | 38886 ft | 524 kts | 98° |
| 2026-05-04 20:28 | 23.61956 | 45.84263 | 38899 ft | 523 kts | 98° |
| 2026-05-04 20:28 | 23.61276 | 45.92157 | 38885 ft | 523 kts | 98° |
| 2026-05-04 20:29 | 23.60592 | 46.00050 | 38884 ft | 523 kts | 98° |
| 2026-05-04 20:29 | 23.59905 | 46.07934 | 38897 ft | 522 kts | 98° |
| 2026-05-04 20:30 | 23.59213 | 46.15818 | 38903 ft | 522 kts | 98° |
| 2026-05-04 20:30 | 23.58519 | 46.23692 | 38904 ft | 521 kts | 98° |
| 2026-05-04 20:31 | 23.57821 | 46.31561 | 38898 ft | 521 kts | 98° |
| 2026-05-04 20:31 | 23.57119 | 46.39422 | 38902 ft | 521 kts | 98° |
| 2026-05-04 20:32 | 23.56415 | 46.47268 | 38907 ft | 520 kts | 99° |
| 2026-05-04 20:32 | 23.55698 | 46.55120 | 38907 ft | 520 kts | 99° |
| 2026-05-04 20:33 | 23.54971 | 46.62947 | 38890 ft | 518 kts | 98° |
| 2026-05-04 20:33 | 23.54252 | 46.70757 | 38893 ft | 518 kts | 98° |
| 2026-05-04 20:34 | 23.53540 | 46.78511 | 38886 ft | 518 kts | 98° |
| 2026-05-04 20:34 | 23.52820 | 46.86323 | 38877 ft | 518 kts | 98° |
| 2026-05-04 20:35 | 23.52095 | 46.94134 | 38875 ft | 518 kts | 98° |
| 2026-05-04 20:35 | 23.51367 | 47.01940 | 38875 ft | 517 kts | 98° |
| 2026-05-04 20:36 | 23.50636 | 47.09732 | 38870 ft | 517 kts | 99° |
| 2026-05-04 20:36 | 23.49901 | 47.17520 | 38861 ft | 516 kts | 98° |
| 2026-05-04 20:37 | 23.49164 | 47.25287 | 38867 ft | 515 kts | 98° |
| 2026-05-04 20:37 | 23.48423 | 47.33056 | 38857 ft | 515 kts | 98° |
| 2026-05-04 20:38 | 23.47678 | 47.40819 | 38860 ft | 515 kts | 98° |
| 2026-05-04 20:38 | 23.46914 | 47.48575 | 38856 ft | 515 kts | 99° |
| 2026-05-04 20:39 | 23.46151 | 47.56341 | 38852 ft | 516 kts | 98° |
| 2026-05-04 20:39 | 23.45395 | 47.64114 | 38858 ft | 517 kts | 98° |
| 2026-05-04 20:40 | 23.44638 | 47.71901 | 38848 ft | 516 kts | 98° |
| 2026-05-04 20:40 | 23.43880 | 47.79670 | 38851 ft | 516 kts | 99° |
| 2026-05-04 20:41 | 23.43116 | 47.87441 | 38850 ft | 517 kts | 99° |
| 2026-05-04 20:41 | 23.42353 | 47.95167 | 38843 ft | 517 kts | 99° |
| 2026-05-04 20:42 | 23.41583 | 48.02921 | 38846 ft | 517 kts | 99° |
| 2026-05-04 20:42 | 23.40805 | 48.10717 | 38836 ft | 519 kts | 99° |
| 2026-05-04 20:43 | 23.40022 | 48.18524 | 38822 ft | 519 kts | 99° |
| 2026-05-04 20:43 | 23.39235 | 48.26326 | 38817 ft | 518 kts | 99° |
| 2026-05-04 20:44 | 23.38457 | 48.34118 | 38819 ft | 517 kts | 98° |
| 2026-05-04 20:44 | 23.37981 | 48.41939 | 38820 ft | 518 kts | 95° |
| 2026-05-04 20:45 | 23.37743 | 48.48457 | 38823 ft | 519 kts | 95° |
| 2026-05-04 20:45 | 23.37468 | 48.56302 | 38820 ft | 519 kts | 95° |
| 2026-05-04 20:46 | 23.37163 | 48.64151 | 38819 ft | 519 kts | 95° |
| 2026-05-04 20:46 | 23.36843 | 48.71983 | 38817 ft | 517 kts | 95° |
| 2026-05-04 20:47 | 23.36518 | 48.79801 | 38813 ft | 517 kts | 95° |
| 2026-05-04 20:47 | 23.36190 | 48.87611 | 38811 ft | 517 kts | 95° |
| 2026-05-04 20:48 | 23.35859 | 48.95424 | 38808 ft | 516 kts | 95° |
| 2026-05-04 20:48 | 23.35472 | 49.03222 | 38807 ft | 515 kts | 98° |
| 2026-05-04 20:49 | 23.34543 | 49.10937 | 38801 ft | 513 kts | 102° |
| 2026-05-04 20:49 | 23.33388 | 49.18592 | 38804 ft | 513 kts | 102° |
| 2026-05-04 20:50 | 23.32249 | 49.26250 | 38808 ft | 513 kts | 102° |
| 2026-05-04 20:50 | 23.31144 | 49.33918 | 38804 ft | 513 kts | 102° |
| 2026-05-04 20:51 | 23.30046 | 49.41595 | 38803 ft | 513 kts | 102° |
| 2026-05-04 20:51 | 23.28945 | 49.49256 | 38801 ft | 512 kts | 102° |
| 2026-05-04 20:52 | 23.27841 | 49.56906 | 38801 ft | 512 kts | 102° |
| 2026-05-04 20:52 | 23.26732 | 49.64553 | 38804 ft | 512 kts | 102° |
| 2026-05-04 20:53 | 23.25625 | 49.72154 | 38808 ft | 512 kts | 102° |
| 2026-05-04 20:53 | 23.24509 | 49.79802 | 38806 ft | 513 kts | 102° |
| 2026-05-04 20:54 | 23.23387 | 49.87459 | 38804 ft | 513 kts | 102° |
| 2026-05-04 20:54 | 23.22254 | 49.95112 | 38807 ft | 512 kts | 102° |
| 2026-05-04 20:55 | 23.21109 | 50.02761 | 38801 ft | 513 kts | 102° |
| 2026-05-04 20:55 | 23.19969 | 50.10419 | 38807 ft | 513 kts | 102° |
| 2026-05-04 20:56 | 23.18831 | 50.18073 | 38807 ft | 513 kts | 102° |
| 2026-05-04 20:56 | 23.17692 | 50.25722 | 38807 ft | 512 kts | 102° |
| 2026-05-04 20:57 | 23.16553 | 50.33340 | 38809 ft | 512 kts | 102° |
| 2026-05-04 20:57 | 23.15406 | 50.40981 | 38810 ft | 513 kts | 102° |
| 2026-05-04 20:58 | 23.14254 | 50.48628 | 38811 ft | 512 kts | 102° |
| 2026-05-04 20:58 | 23.13100 | 50.56266 | 38804 ft | 512 kts | 102° |
| 2026-05-04 20:59 | 23.11945 | 50.63883 | 38809 ft | 510 kts | 102° |
| 2026-05-04 20:59 | 23.10788 | 50.71489 | 38809 ft | 510 kts | 102° |
| 2026-05-04 21:00 | 23.09626 | 50.79098 | 38812 ft | 511 kts | 103° |
| 2026-05-04 21:00 | 23.08447 | 50.86708 | 38812 ft | 511 kts | 103° |
| 2026-05-04 21:01 | 23.07263 | 50.94322 | 38808 ft | 511 kts | 103° |
| 2026-05-04 21:01 | 23.06093 | 51.01886 | 38807 ft | 511 kts | 103° |
| 2026-05-04 21:02 | 23.04916 | 51.09503 | 38804 ft | 512 kts | 103° |
| 2026-05-04 21:02 | 23.03736 | 51.17113 | 38802 ft | 510 kts | 102° |
| 2026-05-04 21:03 | 23.02556 | 51.24692 | 38804 ft | 510 kts | 103° |
| 2026-05-04 21:03 | 23.01371 | 51.32277 | 38801 ft | 509 kts | 103° |
| 2026-05-04 21:04 | 23.00182 | 51.39863 | 38801 ft | 510 kts | 103° |
| 2026-05-04 21:04 | 22.98989 | 51.47447 | 38801 ft | 510 kts | 103° |
| 2026-05-04 21:05 | 22.97792 | 51.55038 | 38800 ft | 510 kts | 103° |
| 2026-05-04 21:05 | 22.96589 | 51.62638 | 38798 ft | 511 kts | 103° |
| 2026-05-04 21:06 | 22.95384 | 51.70226 | 38799 ft | 511 kts | 103° |
| 2026-05-04 21:06 | 22.94158 | 51.77817 | 38798 ft | 511 kts | 103° |
| 2026-05-04 21:07 | 22.92935 | 51.85404 | 38800 ft | 511 kts | 103° |
| 2026-05-04 21:07 | 22.91724 | 51.92952 | 38796 ft | 511 kts | 103° |
| 2026-05-04 21:08 | 22.90504 | 52.00544 | 38791 ft | 511 kts | 103° |
| 2026-05-04 21:08 | 22.89279 | 52.08142 | 38790 ft | 512 kts | 103° |
| 2026-05-04 21:09 | 22.88049 | 52.15744 | 38794 ft | 512 kts | 103° |
| 2026-05-04 21:09 | 22.86816 | 52.23345 | 38793 ft | 512 kts | 103° |
| 2026-05-04 21:10 | 22.85581 | 52.30931 | 38793 ft | 510 kts | 102° |
| 2026-05-04 21:10 | 22.84346 | 52.38494 | 38791 ft | 510 kts | 103° |
| 2026-05-04 21:11 | 22.83105 | 52.46069 | 38793 ft | 510 kts | 103° |
| 2026-05-04 21:11 | 22.82009 | 52.53666 | 38792 ft | 511 kts | 100° |
| 2026-05-04 21:12 | 22.81099 | 52.61281 | 38792 ft | 511 kts | 99° |
| 2026-05-04 21:12 | 22.80215 | 52.68871 | 38793 ft | 511 kts | 99° |
| 2026-05-04 21:13 | 22.79302 | 52.76551 | 38791 ft | 510 kts | 99° |
| 2026-05-04 21:13 | 22.78389 | 52.84115 | 38790 ft | 510 kts | 99° |
| 2026-05-04 21:14 | 22.77464 | 52.91729 | 38788 ft | 508 kts | 99° |
| 2026-05-04 21:14 | 22.76540 | 52.99316 | 38790 ft | 508 kts | 99° |
| 2026-05-04 21:15 | 22.75613 | 53.06893 | 38787 ft | 507 kts | 99° |
| 2026-05-04 21:15 | 22.74684 | 53.14462 | 38788 ft | 507 kts | 99° |
| 2026-05-04 21:16 | 22.73751 | 53.22030 | 38790 ft | 507 kts | 99° |
| 2026-05-04 21:16 | 22.72815 | 53.29596 | 38788 ft | 506 kts | 99° |
| 2026-05-04 21:17 | 22.71876 | 53.37150 | 38784 ft | 506 kts | 100° |
| 2026-05-04 21:17 | 22.70918 | 53.44703 | 38785 ft | 506 kts | 100° |
| 2026-05-04 21:18 | 22.69961 | 53.52255 | 38782 ft | 506 kts | 100° |
| 2026-05-04 21:18 | 22.69011 | 53.59793 | 38778 ft | 504 kts | 99° |
| 2026-05-04 21:19 | 22.68065 | 53.67301 | 38782 ft | 503 kts | 99° |
| 2026-05-04 21:19 | 22.67114 | 53.74806 | 38785 ft | 503 kts | 99° |
| 2026-05-04 21:20 | 22.66167 | 53.82259 | 38778 ft | 503 kts | 100° |
| 2026-05-04 21:20 | 22.65208 | 53.89768 | 38780 ft | 503 kts | 100° |
| 2026-05-04 21:21 | 22.64247 | 53.97272 | 38776 ft | 503 kts | 100° |
| 2026-05-04 21:21 | 22.63282 | 54.04773 | 38777 ft | 503 kts | 99° |
| 2026-05-04 21:22 | 22.62313 | 54.12280 | 38777 ft | 504 kts | 100° |
| 2026-05-04 21:22 | 22.61341 | 54.19783 | 38779 ft | 504 kts | 100° |
| 2026-05-04 21:23 | 22.60942 | 54.27332 | 38771 ft | 504 kts | 84° |
| 2026-05-04 21:23 | 22.61585 | 54.31056 | 38771 ft | 504 kts | 73° |
| 2026-05-04 21:23 | 22.62834 | 54.34598 | 38771 ft | 504 kts | 63° |
| 2026-05-04 21:24 | 22.66258 | 54.41218 | 38779 ft | 505 kts | 59° |
| 2026-05-04 21:24 | 22.69636 | 54.47908 | 38777 ft | 507 kts | 62° |
| 2026-05-04 21:25 | 22.72745 | 54.54763 | 38776 ft | 507 kts | 64° |
| 2026-05-04 21:25 | 22.75758 | 54.61677 | 38774 ft | 507 kts | 64° |
| 2026-05-04 21:26 | 22.78766 | 54.68593 | 38774 ft | 507 kts | 64° |
| 2026-05-04 21:26 | 22.81786 | 54.75512 | 38774 ft | 507 kts | 64° |
| 2026-05-04 21:27 | 22.84797 | 54.82407 | 38771 ft | 508 kts | 64° |
| 2026-05-04 21:27 | 22.87816 | 54.89332 | 38768 ft | 508 kts | 64° |
| 2026-05-04 21:28 | 22.90836 | 54.96266 | 38775 ft | 508 kts | 64° |
| 2026-05-04 21:28 | 22.93825 | 55.03144 | 38774 ft | 508 kts | 64° |
| 2026-05-04 21:29 | 22.96851 | 55.10114 | 38776 ft | 507 kts | 64° |
| 2026-05-04 21:29 | 22.99861 | 55.16965 | 38720 ft | 502 kts | 61° |
| 2026-05-04 21:30 | 23.01684 | 55.20169 | 38434 ft | 496 kts | 51° |
| 2026-05-04 21:30 | 23.04003 | 55.22909 | 38049 ft | 492 kts | 38° |
| 2026-05-04 21:30 | 23.06773 | 55.25036 | 37604 ft | 487 kts | 25° |
| 2026-05-04 21:30 | 23.09863 | 55.26487 | 37046 ft | 482 kts | 14° |
| 2026-05-04 21:31 | 23.16343 | 55.28268 | 35994 ft | 481 kts | 8° |
| 2026-05-04 21:31 | 23.19613 | 55.29063 | 35461 ft | 482 kts | 9° |
| 2026-05-04 21:31 | 23.22880 | 55.29906 | 34931 ft | 483 kts | 10° |
| 2026-05-04 21:32 | 23.26144 | 55.30803 | 34399 ft | 484 kts | 11° |
| 2026-05-04 21:32 | 23.29403 | 55.31739 | 33862 ft | 485 kts | 11° |
| 2026-05-04 21:32 | 23.32669 | 55.32701 | 33224 ft | 486 kts | 12° |
| 2026-05-04 21:32 | 23.34828 | 55.33343 | 32810 ft | 486 kts | 12° |
| 2026-05-04 21:33 | 23.38094 | 55.34318 | 32218 ft | 487 kts | 12° |
| 2026-05-04 21:33 | 23.42476 | 55.35627 | 31427 ft | 489 kts | 12° |
| 2026-05-04 21:33 | 23.44653 | 55.36276 | 31045 ft | 489 kts | 12° |
| 2026-05-04 21:33 | 23.47937 | 55.37254 | 30461 ft | 490 kts | 12° |
| 2026-05-04 21:34 | 23.51229 | 55.38233 | 29881 ft | 491 kts | 12° |
| 2026-05-04 21:34 | 23.54534 | 55.39214 | 29194 ft | 492 kts | 12° |
| 2026-05-04 21:34 | 23.57846 | 55.40195 | 28527 ft | 494 kts | 12° |
| 2026-05-04 21:34 | 23.61163 | 55.41176 | 27873 ft | 494 kts | 12° |
| 2026-05-04 21:35 | 23.64484 | 55.42159 | 27228 ft | 495 kts | 12° |
| 2026-05-04 21:35 | 23.67813 | 55.43145 | 26588 ft | 496 kts | 12° |
| 2026-05-04 21:35 | 23.71149 | 55.44133 | 25945 ft | 497 kts | 12° |
| 2026-05-04 21:35 | 23.74485 | 55.45122 | 25318 ft | 496 kts | 13° |
| 2026-05-04 21:36 | 23.77803 | 55.46108 | 24671 ft | 491 kts | 13° |
| 2026-05-04 21:36 | 23.81083 | 55.47083 | 24045 ft | 487 kts | 13° |
| 2026-05-04 21:36 | 23.84335 | 55.48049 | 23425 ft | 482 kts | 13° |
| 2026-05-04 21:36 | 23.87552 | 55.49006 | 22684 ft | 477 kts | 13° |
| 2026-05-04 21:37 | 23.90733 | 55.49952 | 21974 ft | 471 kts | 13° |
| 2026-05-04 21:37 | 23.93880 | 55.50887 | 21312 ft | 466 kts | 13° |
| 2026-05-04 21:37 | 23.96993 | 55.51812 | 20663 ft | 461 kts | 13° |
| 2026-05-04 21:37 | 24.00069 | 55.52727 | 20017 ft | 456 kts | 13° |
| 2026-05-04 21:38 | 24.03108 | 55.53635 | 19380 ft | 450 kts | 14° |
| 2026-05-04 21:38 | 24.06109 | 55.54536 | 18743 ft | 445 kts | 14° |
| 2026-05-04 21:38 | 24.09085 | 55.55430 | 18099 ft | 441 kts | 14° |
| 2026-05-04 21:38 | 24.12029 | 55.56316 | 17392 ft | 436 kts | 14° |
| 2026-05-04 21:39 | 24.14939 | 55.57192 | 16743 ft | 432 kts | 14° |
| 2026-05-04 21:39 | 24.17841 | 55.57944 | 16099 ft | 427 kts | 8° |
| 2026-05-04 21:39 | 24.20736 | 55.58052 | 15496 ft | 420 kts | 352° |
| 2026-05-04 21:39 | 24.23519 | 55.57187 | 14901 ft | 414 kts | 333° |
| 2026-05-04 21:40 | 24.25854 | 55.55396 | 14297 ft | 410 kts | 314° |
| 2026-05-04 21:40 | 24.27491 | 55.52860 | 13782 ft | 408 kts | 295° |
| 2026-05-04 21:40 | 24.28373 | 55.49917 | 13456 ft | 407 kts | 283° |
| 2026-05-04 21:40 | 24.28891 | 55.46937 | 13308 ft | 385 kts | 280° |
| 2026-05-04 21:41 | 24.29298 | 55.44123 | 13177 ft | 362 kts | 279° |
| 2026-05-04 21:41 | 24.29693 | 55.41480 | 13048 ft | 342 kts | 281° |
| 2026-05-04 21:41 | 24.30096 | 55.38986 | 12925 ft | 324 kts | 281° |
| 2026-05-04 21:41 | 24.30553 | 55.36634 | 12781 ft | 310 kts | 285° |
| 2026-05-04 21:42 | 24.31152 | 55.34385 | 12741 ft | 306 kts | 288° |
| 2026-05-04 21:42 | 24.31801 | 55.32183 | 12677 ft | 305 kts | 289° |
| 2026-05-04 21:42 | 24.32470 | 55.29976 | 12612 ft | 305 kts | 289° |
| 2026-05-04 21:42 | 24.33142 | 55.27777 | 12563 ft | 304 kts | 289° |
| 2026-05-04 21:43 | 24.33815 | 55.25577 | 12483 ft | 304 kts | 289° |
| 2026-05-04 21:43 | 24.34486 | 55.23384 | 12419 ft | 303 kts | 289° |
| 2026-05-04 21:43 | 24.35156 | 55.21191 | 12246 ft | 305 kts | 289° |
| 2026-05-04 21:43 | 24.35827 | 55.18993 | 11835 ft | 302 kts | 290° |
| 2026-05-04 21:44 | 24.36490 | 55.16819 | 11356 ft | 300 kts | 290° |
| 2026-05-04 21:44 | 24.37148 | 55.14659 | 10860 ft | 297 kts | 290° |
| 2026-05-04 21:44 | 24.37799 | 55.12524 | 10504 ft | 294 kts | 290° |
| 2026-05-04 21:44 | 24.38441 | 55.10420 | 10325 ft | 285 kts | 290° |
| 2026-05-04 21:45 | 24.39054 | 55.08405 | 10091 ft | 272 kts | 290° |
| 2026-05-04 21:45 | 24.39647 | 55.06457 | 9643 ft | 268 kts | 291° |
| 2026-05-04 21:45 | 24.40232 | 55.04539 | 9210 ft | 264 kts | 291° |
| 2026-05-04 21:45 | 24.40780 | 55.02612 | 9018 ft | 265 kts | 285° |
| 2026-05-04 21:46 | 24.40855 | 55.00617 | 8982 ft | 270 kts | 262° |
| 2026-05-04 21:46 | 24.40063 | 54.98742 | 8966 ft | 277 kts | 234° |
| 2026-05-04 21:46 | 24.38698 | 54.97233 | 8975 ft | 281 kts | 224° |
| 2026-05-04 21:46 | 24.37196 | 54.95862 | 8971 ft | 282 kts | 219° |
| 2026-05-04 21:47 | 24.35474 | 54.94829 | 8943 ft | 286 kts | 199° |
| 2026-05-04 21:47 | 24.33494 | 54.94628 | 8887 ft | 288 kts | 176° |
| 2026-05-04 21:47 | 24.31502 | 54.94924 | 8829 ft | 289 kts | 171° |
| 2026-05-04 21:47 | 24.29524 | 54.95326 | 8764 ft | 289 kts | 169° |
| 2026-05-04 21:48 | 24.27547 | 54.95736 | 8713 ft | 289 kts | 170° |
| 2026-05-04 21:48 | 24.25567 | 54.96135 | 8594 ft | 290 kts | 170° |
| 2026-05-04 21:48 | 24.23588 | 54.96523 | 8309 ft | 286 kts | 170° |
| 2026-05-04 21:48 | 24.21699 | 54.96878 | 8162 ft | 267 kts | 173° |
| 2026-05-04 21:49 | 24.19862 | 54.96811 | 7811 ft | 263 kts | 192° |
| 2026-05-04 21:49 | 24.18229 | 54.96034 | 7312 ft | 253 kts | 224° |
| 2026-05-04 21:49 | 24.17303 | 54.94491 | 6855 ft | 239 kts | 259° |
| 2026-05-04 21:49 | 24.17318 | 54.92734 | 6429 ft | 229 kts | 291° |
| 2026-05-04 21:50 | 24.18149 | 54.91307 | 6014 ft | 222 kts | 321° |
| 2026-05-04 21:50 | 24.19497 | 54.90556 | 5595 ft | 219 kts | 349° |
| 2026-05-04 21:50 | 24.21014 | 54.90522 | 5238 ft | 220 kts | 4° |
| 2026-05-04 21:50 | 24.22522 | 54.90695 | 4894 ft | 220 kts | 5° |
| 2026-05-04 21:51 | 24.24059 | 54.90661 | 4547 ft | 219 kts | 346° |
| 2026-05-04 21:51 | 24.25365 | 54.89851 | 4181 ft | 218 kts | 317° |
| 2026-05-04 21:51 | 24.26396 | 54.88621 | 4069 ft | 220 kts | 313° |
| 2026-05-04 21:51 | 24.27377 | 54.87399 | 4029 ft | 207 kts | 312° |
| 2026-05-04 21:52 | 24.28255 | 54.86261 | 4018 ft | 189 kts | 311° |
| 2026-05-04 21:52 | 24.29081 | 54.85156 | 3957 ft | 188 kts | 310° |
| 2026-05-04 21:52 | 24.29864 | 54.84033 | 3740 ft | 180 kts | 308° |
| 2026-05-04 21:52 | 24.30581 | 54.82989 | 3497 ft | 164 kts | 309° |
| 2026-05-04 21:53 | 24.31255 | 54.82029 | 3297 ft | 156 kts | 310° |
| 2026-05-04 21:53 | 24.31924 | 54.81106 | 3119 ft | 154 kts | 310° |
| 2026-05-04 21:53 | 24.32587 | 54.80184 | 2939 ft | 154 kts | 309° |
| 2026-05-04 21:53 | 24.33249 | 54.79261 | 2749 ft | 154 kts | 309° |
| 2026-05-04 21:54 | 24.33908 | 54.78337 | 2582 ft | 153 kts | 309° |
| 2026-05-04 21:54 | 24.34564 | 54.77416 | 2376 ft | 154 kts | 309° |
| 2026-05-04 21:54 | 24.35220 | 54.76495 | 2196 ft | 152 kts | 309° |
| 2026-05-04 21:54 | 24.35864 | 54.75587 | 1989 ft | 150 kts | 310° |
| 2026-05-04 21:55 | 24.36504 | 54.74687 | 1797 ft | 149 kts | 310° |
| 2026-05-04 21:55 | 24.37137 | 54.73796 | 1620 ft | 148 kts | 310° |
| 2026-05-04 21:55 | 24.37767 | 54.72909 | 1431 ft | 148 kts | 310° |
| 2026-05-04 21:55 | 24.38399 | 54.72016 | 1244 ft | 148 kts | 309° |
| 2026-05-04 21:56 | 24.39024 | 54.71113 | 1040 ft | 149 kts | 309° |
| 2026-05-04 21:56 | 24.39670 | 54.70218 | 875 ft | 149 kts | 309° |
| 2026-05-04 21:56 | 24.40314 | 54.69319 | 699 ft | 150 kts | 307° |
| 2026-05-04 21:56 | 24.40947 | 54.68404 | 518 ft | 150 kts | 307° |
| 2026-05-04 21:57 | 24.41597 | 54.67509 | 314 ft | 150 kts | 308° |
| 2026-05-04 21:57 | 24.42236 | 54.66631 | 106 ft | 149 kts | 307° |
| 2026-05-04 21:57 | 24.42812 | 54.65829 | 88 ft | 108 kts | 312° |
| 2026-05-04 21:57 | 24.43174 | 54.65307 | 91 ft | 70 kts | 307° |
| 2026-05-04 21:58 | 24.43372 | 54.65031 | 89 ft | 26 kts | 310° |
| 2026-05-04 21:58 | 24.43511 | 54.64928 | 88 ft | 23 kts | 337° |
| 2026-05-04 21:58 | 24.43655 | 54.64854 | 88 ft | 22 kts | 334° |
| 2026-05-04 21:58 | 24.43771 | 54.64766 | 89 ft | 20 kts | 313° |
| 2026-05-04 21:59 | 24.43841 | 54.64689 | 85 ft | 6 kts | 336° |
| 2026-05-04 21:59 | 24.43874 | 54.64688 | 87 ft | 7 kts | 359° |
| 2026-05-04 21:59 | 24.43944 | 54.64675 | 86 ft | 10 kts | 333° |
| 2026-05-04 21:59 | 24.43996 | 54.64610 | 88 ft | 15 kts | 309° |
| 2026-05-04 22:00 | 24.44079 | 54.64495 | 86 ft | 23 kts | 307° |
| 2026-05-04 22:00 | 24.44179 | 54.64380 | 89 ft | 15 kts | 336° |
| 2026-05-04 22:00 | 24.44229 | 54.64385 | 87 ft | 7 kts | 26° |
| 2026-05-04 22:00 | 24.44292 | 54.64417 | 87 ft | 13 kts | 30° |
| 2026-05-04 22:01 | 24.44358 | 54.64457 | 86 ft | 8 kts | 16° |
| 2026-05-04 22:01 | 24.44385 | 54.64459 | 86 ft | 0 kts | 0° |